Bookmark and Share
Track history (hours):
 

Suederoog

Last reported at 2014-Apr-24 21:31 UTC. Time now 2014-Apr-24 21:58 UTC.
Position N 54°09' E 009°22'.

Length 161 m; draft 8.4 m.

Type: Cargo ship. MMSI: 236300000.

NotesDate/timePositionNaut miles runAvg speedWind from/ knotsBaromVisibWave heightAir tempDewpointWater temp
2014-Apr-24 21:31N 54°09' E 009°22'6 6.4
2014-Apr-24 20:33N 54°03' E 009°19'7 7.3
2014-Apr-24 19:34N 53°57' E 009°14'4 4.2
2014-Apr-24 18:34N 53°54' E 009°09'2 1.8
2014-Apr-24 17:34N 53°53' E 009°06'0 0.3
2014-Apr-24 16:31N 53°53' E 009°07'0 0.2
2014-Apr-24 15:31N 53°53' E 009°06'0 0.1
2014-Apr-24 14:34N 53°53' E 009°06'1111.0
2014-Apr-24 13:33N 53°50' E 008°48'1312.8
2014-Apr-24 12:34N 53°58' E 008°31'1414.4
2014-Apr-24 11:34N 53°59' E 008°07'9 8.6
2014-Apr-24 10:33N 53°51' E 008°01'1919.2
2014-Apr-24 09:33N 53°38' E 008°26'4 4.0
2014-Apr-24 08:31N 53°36' E 008°31'0 0.0
2014-Apr-24 07:33N 53°36' E 008°31'0 0.0
2014-Apr-24 06:33N 53°36' E 008°31'0 0.0
2014-Apr-24 05:33N 53°36' E 008°31'0 0.0
2014-Apr-24 04:33N 53°36' E 008°31'8 8.5
2014-Apr-24 03:33N 53°41' E 008°21'1313.2
2014-Apr-24 02:33N 53°50' E 008°04'1111.3
2014-Apr-24 01:33N 53°53' E 007°45'1110.7
2014-Apr-24 00:33N 53°54' E 007°27'1212.5
2014-Apr-23 23:33N 53°51' E 007°07'1715.9
2014-Apr-23 22:31N 53°47' E 006°39'1515.5
2014-Apr-23 21:32N 53°43' E 006°14'1615.7
2014-Apr-23 20:33N 53°39' E 005°49'1515.6
2014-Apr-23 19:33N 53°34' E 005°25'1615.5
2014-Apr-23 18:33N 53°29' E 005°00'8115.5
2014-Apr-23 13:19N 52°19' E 003°52'1216.1
2014-Apr-23 12:33N 52°07' E 003°55'10 9.9
2014-Apr-23 11:33N 51°59' E 004°05'10 9.7
2014-Apr-23 10:33N 51°54' E 004°18'5 4.5
2014-Apr-23 09:31N 51°53' E 004°26'0 0.0
2014-Apr-23 08:31N 51°53' E 004°26'0 0.0
2014-Apr-23 07:31N 51°53' E 004°26'0 0.0
2014-Apr-23 06:31N 51°53' E 004°26'0 0.0
2014-Apr-23 05:30N 51°53' E 004°26'0 0.3
2014-Apr-23 04:33N 51°54' E 004°26'7 7.0
2014-Apr-23 03:33N 51°55' E 004°15'1211.8
2014-Apr-23 02:33N 51°60' E 003°58'1414.1
2014-Apr-23 01:33N 51°57' E 003°35'4711.2
2014-Apr-22 21:23N 51°38' E 002°26'1613.7
2014-Apr-22 20:11N 51°26' E 002°09'1218.3
2014-Apr-22 19:34N 51°15' E 002°06'2019.2
2014-Apr-22 18:33N 51°03' E 001°41'2419.4
2014-Apr-22 17:17N 50°42' E 001°21'1418.6
2014-Apr-22 16:33N 50°33' E 001°06'1817.8
2014-Apr-22 15:33N 50°26' E 000°40'1918.8
2014-Apr-22 14:33N 50°21' E 000°11'1918.9
2014-Apr-22 13:33N 50°17' W 000°18'2019.5
2014-Apr-22 12:30N 50°11' W 000°48'1919.3
2014-Apr-22 11:33N 50°06' W 001°16'  

Dump ship's entire track history

sailing weather and tide predictions

Suederoog — ZDHC8 — position and weather